createdAt,value
2018-04-24T00:00:22.416Z,99.99
2018-04-24T00:01:22.989Z,99.99
2018-04-24T00:02:23.563Z,99.99
2018-04-24T00:03:24.137Z,99.99
2018-04-24T00:05:09.059Z,99.99
2018-04-24T00:06:09.783Z,99.99
2018-04-24T00:07:10.355Z,99.99
2018-04-24T00:08:10.929Z,99.99
2018-04-24T00:09:55.955Z,99.99
2018-04-24T00:10:56.480Z,99.99
2018-04-24T00:11:57.048Z,99.99
2018-04-24T00:12:57.622Z,99.99
2018-04-24T00:14:42.545Z,99.99
2018-04-24T00:15:43.118Z,99.99
2018-04-24T00:16:43.734Z,99.99
2018-04-24T00:17:44.308Z,99.99
2018-04-24T00:19:29.280Z,99.99
2018-04-24T00:20:29.852Z,99.99
2018-04-24T00:21:30.427Z,99.99
2018-04-24T00:22:31.201Z,99.99
2018-04-24T00:24:16.175Z,99.99
2018-04-24T00:25:16.749Z,99.99
2018-04-24T00:26:17.322Z,99.99
2018-04-24T00:27:17.944Z,99.99
2018-04-24T00:29:02.869Z,99.99
2018-04-24T00:30:03.442Z,99.99
2018-04-24T00:31:04.016Z,99.99
2018-04-24T00:32:04.590Z,99.99
2018-04-24T00:33:49.511Z,99.99
2018-04-24T00:34:50.084Z,99.99
2018-04-24T00:35:50.659Z,99.99
2018-04-24T00:36:51.282Z,99.99
2018-04-24T00:38:36.209Z,99.99
2018-04-24T00:39:36.821Z,99.99
2018-04-24T00:40:37.396Z,99.99
2018-04-24T00:41:38.020Z,99.99
2018-04-24T00:43:22.943Z,99.99
2018-04-24T00:44:23.517Z,99.99
2018-04-24T00:45:24.092Z,99.99
2018-04-24T00:46:24.666Z,99.99
2018-04-24T00:48:09.638Z,99.99
2018-04-24T00:49:10.210Z,99.99
2018-04-24T00:50:10.784Z,99.99
2018-04-24T00:51:11.358Z,99.99
2018-04-24T00:52:56.330Z,99.99
2018-04-24T00:53:56.905Z,99.99
2018-04-24T00:54:57.477Z,99.99
2018-04-24T00:55:58.049Z,99.99
2018-04-24T00:57:42.974Z,99.99
2018-04-24T00:58:43.546Z,99.99
2018-04-24T00:59:44.120Z,99.99
2018-04-24T01:00:44.702Z,99.99
2018-04-24T01:02:29.658Z,99.99
2018-04-24T01:03:30.238Z,99.99
2018-04-24T01:04:30.897Z,99.99
2018-04-24T01:05:31.470Z,99.99
2018-04-24T01:07:16.394Z,99.99
2018-04-24T01:08:16.966Z,99.99
2018-04-24T01:09:17.541Z,99.99
2018-04-24T01:10:18.115Z,99.99
2018-04-24T01:12:03.128Z,99.99
2018-04-24T01:13:03.703Z,99.99
2018-04-24T01:14:04.277Z,99.99
2018-04-24T01:15:04.941Z,99.99
2018-04-24T01:16:49.864Z,99.99
2018-04-24T01:17:50.437Z,99.99
2018-04-24T01:18:51.011Z,99.99
2018-04-24T01:19:51.585Z,99.99
2018-04-24T01:21:36.508Z,99.99
2018-04-24T01:22:37.081Z,99.99
2018-04-24T01:23:37.705Z,99.99
2018-04-24T01:24:38.321Z,99.99
2018-04-24T01:26:23.245Z,99.99
2018-04-24T01:27:23.817Z,99.99
2018-04-24T01:28:24.392Z,99.99
2018-04-24T01:29:24.974Z,99.99
2018-04-24T01:31:09.979Z,99.99
2018-04-24T01:32:10.554Z,99.99
2018-04-24T01:33:11.127Z,99.99
2018-04-24T01:34:11.749Z,99.99
2018-04-24T01:35:56.677Z,99.99
2018-04-24T01:36:57.246Z,99.99
2018-04-24T01:37:57.820Z,99.99
2018-04-24T01:38:58.394Z,99.99
2018-04-24T01:40:43.316Z,99.99
2018-04-24T01:41:43.888Z,99.99
2018-04-24T01:42:44.463Z,99.99
2018-04-24T01:43:45.038Z,99.99
2018-04-24T01:45:30.059Z,99.99
2018-04-24T01:46:30.634Z,99.99
2018-04-24T01:47:31.206Z,99.99
2018-04-24T01:48:31.778Z,99.99
2018-04-24T01:50:16.702Z,99.99
2018-04-24T01:51:17.424Z,99.99
2018-04-24T01:52:17.997Z,99.99
2018-04-24T01:53:18.572Z,99.99
2018-04-24T01:55:03.544Z,99.99
2018-04-24T01:56:04.120Z,99.99
2018-04-24T01:57:04.690Z,99.99
2018-04-24T01:58:05.263Z,99.99
2018-04-24T01:59:50.186Z,99.99
2018-04-24T02:00:50.759Z,99.99
2018-04-24T02:01:51.386Z,99.99
2018-04-24T02:02:51.997Z,99.99
2018-04-24T02:04:36.922Z,99.99
2018-04-24T02:05:37.494Z,99.99
2018-04-24T02:06:38.119Z,99.99
2018-04-24T02:07:38.692Z,99.99
2018-04-24T02:09:23.705Z,99.99
2018-04-24T02:10:24.278Z,99.99
2018-04-24T02:11:24.861Z,99.99
2018-04-24T02:12:25.433Z,99.99
2018-04-24T02:14:10.549Z,99.99
2018-04-24T02:15:11.126Z,99.99
2018-04-24T02:16:11.697Z,99.99
2018-04-24T02:17:12.321Z,99.99
2018-04-24T02:18:57.249Z,99.99
2018-04-24T02:19:57.818Z,99.99
2018-04-24T02:20:58.391Z,99.99
2018-04-24T02:21:58.965Z,99.99
2018-04-24T02:23:43.929Z,99.99
2018-04-24T02:24:44.508Z,99.99
2018-04-24T02:25:45.117Z,99.99
2018-04-24T02:26:45.740Z,99.99
2018-04-24T02:28:30.665Z,99.99
2018-04-24T02:29:31.287Z,99.99
2018-04-24T02:30:31.859Z,99.99
2018-04-24T02:31:32.433Z,99.99
2018-04-24T02:33:17.356Z,99.99
2018-04-24T02:34:17.979Z,99.99
2018-04-24T02:35:18.551Z,99.99
2018-04-24T02:36:19.125Z,99.99
2018-04-24T02:38:04.048Z,99.99
2018-04-24T02:39:04.623Z,99.99
2018-04-24T02:40:05.437Z,99.99
2018-04-24T02:41:06.062Z,99.99
2018-04-24T02:42:50.990Z,99.99
2018-04-24T02:43:51.554Z,99.99
2018-04-24T02:44:52.128Z,99.99
2018-04-24T02:45:52.701Z,99.99
2018-04-24T02:47:37.623Z,99.99
2018-04-24T02:48:38.195Z,99.99
2018-04-24T02:49:38.828Z,99.99
2018-04-24T02:50:39.433Z,99.99
2018-04-24T02:52:24.408Z,99.99
2018-04-24T02:53:24.981Z,99.99
2018-04-24T02:54:25.596Z,99.99
2018-04-24T02:55:26.175Z,99.99
2018-04-24T02:57:11.133Z,99.99
2018-04-24T02:58:11.708Z,99.99
2018-04-24T02:59:12.280Z,99.99
2018-04-24T03:00:12.905Z,99.99
2018-04-24T03:01:57.826Z,99.99
2018-04-24T03:02:58.401Z,99.99
2018-04-24T03:03:58.975Z,99.99
2018-04-24T03:04:59.549Z,99.99
2018-04-24T03:06:44.470Z,99.99
2018-04-24T03:07:45.097Z,99.99
2018-04-24T03:08:45.665Z,99.99
2018-04-24T03:09:46.328Z,99.99
2018-04-24T03:11:31.252Z,99.99
2018-04-24T03:12:31.875Z,99.99
2018-04-24T03:13:32.449Z,99.99
2018-04-24T03:14:33.061Z,99.99
2018-04-24T03:16:17.985Z,99.99
2018-04-24T03:17:18.558Z,99.99
2018-04-24T03:18:19.131Z,99.99
2018-04-24T03:19:19.755Z,99.99
2018-04-24T03:21:04.679Z,99.99
2018-04-24T03:22:05.301Z,99.99
2018-04-24T03:23:05.923Z,99.99
2018-04-24T03:24:06.495Z,99.99
2018-04-24T03:25:51.419Z,99.99
2018-04-24T03:26:51.991Z,99.99
2018-04-24T03:27:52.565Z,99.99
2018-04-24T03:28:53.190Z,99.99
2018-04-24T03:30:38.117Z,99.99
2018-04-24T03:31:38.685Z,99.99
2018-04-24T03:32:39.260Z,99.99
2018-04-24T03:33:39.832Z,99.99
2018-04-24T03:35:24.754Z,99.99
2018-04-24T03:36:25.327Z,99.99
2018-04-24T03:37:25.951Z,99.99
2018-04-24T03:38:26.568Z,99.99
2018-04-24T03:40:11.492Z,99.99
2018-04-24T03:41:12.112Z,99.99
2018-04-24T03:42:12.686Z,99.99
2018-04-24T03:43:13.258Z,99.99
2018-04-24T03:44:58.230Z,99.99
2018-04-24T03:45:58.802Z,99.99
2018-04-24T03:46:59.577Z,99.99
2018-04-24T03:48:00.151Z,99.99
2018-04-24T03:49:45.076Z,99.99
2018-04-24T03:50:45.698Z,99.99
2018-04-24T03:51:46.269Z,99.99
2018-04-24T03:52:46.841Z,99.99
2018-04-24T03:54:31.816Z,99.99
2018-04-24T03:55:32.387Z,99.99
2018-04-24T03:56:32.960Z,99.99
2018-04-24T03:57:33.534Z,99.99
2018-04-24T03:59:18.456Z,99.99
2018-04-24T04:02:36.681Z,99.99
2018-04-24T04:03:37.253Z,99.99
2018-04-24T04:04:37.880Z,99.99
2018-04-24T04:05:38.500Z,99.99
2018-04-24T04:07:23.424Z,99.99
2018-04-24T04:08:24.196Z,99.99
2018-04-24T04:09:24.773Z,99.99
2018-04-24T04:10:25.343Z,99.99
2018-04-24T04:12:10.266Z,99.99
2018-04-24T04:13:10.838Z,99.99
2018-04-24T04:14:11.414Z,99.99
2018-04-24T04:15:11.987Z,99.99
2018-04-24T04:16:56.907Z,99.99
2018-04-24T04:17:57.481Z,99.99
2018-04-24T04:18:58.055Z,99.99
2018-04-24T04:19:58.628Z,99.99
2018-04-24T04:21:43.599Z,99.99
2018-04-24T04:22:44.174Z,99.99
2018-04-24T04:23:44.750Z,99.99
2018-04-24T04:24:45.368Z,99.99
2018-04-24T04:26:30.291Z,99.99
2018-04-24T04:27:30.862Z,99.99
2018-04-24T04:28:31.437Z,99.99
2018-04-24T04:29:32.010Z,99.99
2018-04-24T04:31:16.982Z,99.99
2018-04-24T04:32:17.553Z,99.99
2018-04-24T04:33:18.129Z,99.99
2018-04-24T04:34:18.700Z,99.99
2018-04-24T04:36:03.623Z,99.99
2018-04-24T04:37:04.194Z,99.99
2018-04-24T04:38:04.768Z,99.99
2018-04-24T04:39:05.341Z,99.99
2018-04-24T04:40:50.312Z,99.99
2018-04-24T04:41:51.037Z,99.99
2018-04-24T04:42:51.609Z,99.99
2018-04-24T04:43:52.182Z,99.99
2018-04-24T04:45:37.105Z,99.99
2018-04-24T04:46:37.677Z,99.99
2018-04-24T04:47:38.252Z,99.99
2018-04-24T04:48:38.925Z,99.99
2018-04-24T04:50:23.848Z,99.99
2018-04-24T04:51:24.420Z,99.99
2018-04-24T04:52:24.995Z,99.99
2018-04-24T04:53:25.572Z,99.99
2018-04-24T04:55:10.592Z,99.99
2018-04-24T04:56:11.182Z,99.99
2018-04-24T04:57:11.735Z,99.99
2018-04-24T04:58:12.357Z,99.99
2018-04-24T04:59:57.280Z,99.99
2018-04-24T05:00:57.855Z,99.99
2018-04-24T05:01:58.478Z,99.99
2018-04-24T05:02:59.051Z,99.99
2018-04-24T05:04:44.025Z,99.99
2018-04-24T05:05:44.599Z,99.99
2018-04-24T05:06:45.170Z,99.99
2018-04-24T05:07:45.743Z,99.99
2018-04-24T05:09:30.665Z,99.99
2018-04-24T05:10:31.237Z,99.99
2018-04-24T05:11:31.811Z,99.99
2018-04-24T05:12:32.384Z,99.99
2018-04-24T05:14:17.356Z,99.99
2018-04-24T05:15:17.929Z,99.99
2018-04-24T05:16:18.554Z,99.99
2018-04-24T05:17:19.126Z,99.99
2018-04-24T05:19:04.099Z,99.99
2018-04-24T05:20:04.719Z,99.99
2018-04-24T05:21:05.245Z,99.99
2018-04-24T05:22:05.817Z,99.99
2018-04-24T05:23:50.840Z,99.99
2018-04-24T05:24:51.415Z,99.99
2018-04-24T05:25:51.986Z,99.99
2018-04-24T05:26:52.561Z,99.99
2018-04-24T05:28:37.523Z,99.99
2018-04-24T05:29:38.097Z,99.99
2018-04-24T05:30:38.811Z,99.99
2018-04-24T05:31:39.383Z,99.99
2018-04-24T05:33:24.507Z,99.99
2018-04-24T05:34:25.082Z,99.99
2018-04-24T05:35:25.653Z,99.99
2018-04-24T05:36:26.226Z,99.99
2018-04-24T05:38:11.150Z,99.99
2018-04-24T05:39:11.721Z,99.99
2018-04-24T05:40:12.294Z,99.99
2018-04-24T05:41:12.867Z,99.99
2018-04-24T05:42:57.788Z,99.99
2018-04-24T05:43:58.359Z,99.99
2018-04-24T05:44:58.933Z,99.99
2018-04-24T05:45:59.511Z,99.99
2018-04-24T05:47:44.620Z,99.99
2018-04-24T05:48:45.192Z,99.99
2018-04-24T05:49:45.814Z,99.99
2018-04-24T05:50:46.388Z,99.99
2018-04-24T05:52:31.358Z,99.99
2018-04-24T05:53:31.929Z,99.99
2018-04-24T05:54:32.504Z,99.99
2018-04-24T05:55:33.077Z,99.99
2018-04-24T05:57:17.998Z,99.99
2018-04-24T05:58:18.570Z,99.99
2018-04-24T05:59:19.143Z,99.99
2018-04-24T06:00:19.717Z,99.99
2018-04-24T06:02:04.637Z,99.99
2018-04-24T06:03:05.259Z,99.99
2018-04-24T06:04:05.784Z,99.99
2018-04-24T06:05:20.174Z,99.99
2018-04-24T06:06:21.053Z,99.99
2018-04-24T06:07:21.833Z,99.99
2018-04-24T06:08:22.443Z,99.99
2018-04-24T06:10:07.506Z,99.99
2018-04-24T06:11:08.086Z,99.99
2018-04-24T06:12:08.666Z,99.99
2018-04-24T06:13:09.246Z,99.99
2018-04-24T06:14:54.343Z,99.99
2018-04-24T06:15:54.921Z,99.99
2018-04-24T06:16:55.505Z,99.99
2018-04-24T06:17:56.123Z,99.99
2018-04-24T06:19:41.215Z,99.99
2018-04-24T06:20:41.796Z,99.99
2018-04-24T06:21:42.374Z,99.99
2018-04-24T06:22:42.955Z,99.99
2018-04-24T06:24:28.050Z,99.99
2018-04-24T06:25:28.678Z,99.99
2018-04-24T06:26:29.256Z,99.99
2018-04-24T06:27:29.835Z,99.99
2018-04-24T06:29:14.977Z,99.99
2018-04-24T06:30:15.706Z,99.99
2018-04-24T06:31:16.287Z,99.99
2018-04-24T06:32:16.863Z,99.99
2018-04-24T06:34:01.957Z,99.99
2018-04-24T06:35:02.535Z,99.99
2018-04-24T06:36:03.119Z,99.99
2018-04-24T06:37:03.691Z,99.99
2018-04-24T06:38:48.785Z,99.99
2018-04-24T06:39:49.405Z,99.99
2018-04-24T06:40:49.983Z,99.99
2018-04-24T06:41:50.563Z,99.99
2018-04-24T06:43:35.704Z,99.99
2018-04-24T06:44:36.285Z,99.99
2018-04-24T06:45:36.910Z,99.99
2018-04-24T06:46:37.487Z,99.99
2018-04-24T06:48:22.629Z,99.99
2018-04-24T06:49:23.209Z,99.99
2018-04-24T06:50:23.786Z,99.99
2018-04-24T06:51:24.363Z,99.99
2018-04-24T06:53:09.452Z,99.99
2018-04-24T06:54:10.033Z,99.99
2018-04-24T06:55:10.609Z,99.99
2018-04-24T06:56:11.188Z,99.99
2018-04-24T06:57:56.278Z,99.99
2018-04-24T06:58:56.858Z,99.99
2018-04-24T06:59:57.436Z,99.99
2018-04-24T07:00:58.023Z,99.99
2018-04-24T07:02:43.106Z,99.99
2018-04-24T07:03:43.684Z,99.99
2018-04-24T07:04:44.266Z,99.99
2018-04-24T07:05:44.934Z,99.99
2018-04-24T07:07:30.074Z,99.99
2018-04-24T07:08:30.653Z,99.99
2018-04-24T07:09:31.283Z,99.99
2018-04-24T07:10:31.860Z,99.99
2018-04-24T07:12:16.960Z,99.99
2018-04-24T07:13:17.570Z,99.99
2018-04-24T07:14:18.152Z,99.99
2018-04-24T07:15:18.767Z,99.99
2018-04-24T07:17:03.863Z,99.99
2018-04-24T07:18:04.436Z,99.99
2018-04-24T07:19:05.017Z,99.99
2018-04-24T07:20:05.600Z,99.99
2018-04-24T07:21:50.726Z,99.99
2018-04-24T07:22:51.305Z,99.99
2018-04-24T07:23:51.882Z,99.99
2018-04-24T07:24:52.461Z,99.99
2018-04-24T07:26:37.603Z,99.99
2018-04-24T07:27:38.238Z,99.99
2018-04-24T07:28:38.858Z,99.99
2018-04-24T07:29:39.435Z,99.99
2018-04-24T07:31:24.532Z,99.99
2018-04-24T07:32:25.150Z,99.99
2018-04-24T07:33:25.728Z,99.99
2018-04-24T07:34:26.308Z,99.99
2018-04-24T07:36:11.398Z,99.99
2018-04-24T07:37:11.978Z,99.99
2018-04-24T07:38:12.557Z,99.99
2018-04-24T07:39:13.136Z,99.99
2018-04-24T07:40:58.304Z,99.99
2018-04-24T07:41:58.811Z,99.99
2018-04-24T07:42:59.385Z,99.99
2018-04-24T07:44:00.014Z,99.99
2018-04-24T07:45:45.105Z,99.99
2018-04-24T07:46:45.698Z,99.99
2018-04-24T07:47:46.311Z,99.99
2018-04-24T07:48:46.890Z,99.99
2018-04-24T07:50:32.182Z,99.99
2018-04-24T07:51:32.759Z,99.99
2018-04-24T07:52:33.336Z,99.99
2018-04-24T07:53:33.914Z,99.99
2018-04-24T07:55:19.006Z,99.99
2018-04-24T07:56:19.584Z,99.99
2018-04-24T07:57:20.161Z,99.99
2018-04-24T07:58:20.741Z,99.99
2018-04-24T08:00:05.831Z,99.99
2018-04-24T08:01:06.410Z,99.99
2018-04-24T08:02:06.987Z,99.99
2018-04-24T08:03:07.615Z,99.99
2018-04-24T08:04:52.757Z,99.99
2018-04-24T08:05:53.336Z,99.99
2018-04-24T08:06:53.963Z,99.99
2018-04-24T08:07:54.542Z,99.99
2018-04-24T08:09:39.633Z,99.99
2018-04-24T08:10:40.212Z,99.99
2018-04-24T08:11:40.792Z,99.99
2018-04-24T08:12:41.371Z,99.99
2018-04-24T08:14:26.462Z,99.99
2018-04-24T08:15:27.042Z,99.99
2018-04-24T08:16:27.652Z,99.99
2018-04-24T08:17:28.198Z,99.99
2018-04-24T08:19:13.288Z,99.99
2018-04-24T08:20:13.918Z,99.99
2018-04-24T08:21:14.445Z,99.99
2018-04-24T08:22:15.078Z,99.99
2018-04-24T08:24:00.215Z,99.99
2018-04-24T08:25:00.796Z,99.99
2018-04-24T08:26:01.415Z,99.99
2018-04-24T08:27:01.993Z,99.99
2018-04-24T08:28:47.126Z,99.99
2018-04-24T08:29:47.756Z,99.99
2018-04-24T08:30:48.403Z,99.99
2018-04-24T08:31:48.912Z,99.99
2018-04-24T08:33:34.084Z,99.99
2018-04-24T08:34:34.584Z,99.99
2018-04-24T08:35:35.163Z,99.99
2018-04-24T08:36:35.741Z,99.99
2018-04-24T08:38:20.831Z,99.99
2018-04-24T08:39:21.412Z,99.99
2018-04-24T08:40:22.041Z,99.99
2018-04-24T08:41:22.617Z,99.99
2018-04-24T08:43:07.760Z,99.99
2018-04-24T08:44:08.339Z,99.99
2018-04-24T08:45:08.918Z,99.99
2018-04-24T08:46:09.498Z,99.99
2018-04-24T08:47:54.669Z,99.99
2018-04-24T08:48:55.169Z,99.99
2018-04-24T08:49:55.748Z,99.99
2018-04-24T08:50:56.378Z,99.99
2018-04-24T08:52:41.470Z,99.99
2018-04-24T08:53:42.049Z,99.99
2018-04-24T08:54:42.627Z,99.99
2018-04-24T08:55:43.207Z,99.99
2018-04-24T08:57:28.299Z,99.99
2018-04-24T08:58:28.879Z,99.99
2018-04-24T08:59:29.457Z,99.99
2018-04-24T09:00:30.090Z,99.99
2018-04-24T09:02:15.183Z,99.99
2018-04-24T09:03:15.813Z,99.99
2018-04-24T09:04:16.390Z,99.99
2018-04-24T09:05:16.969Z,99.99
2018-04-24T09:07:02.061Z,99.99
2018-04-24T09:08:02.640Z,99.99
2018-04-24T09:09:03.220Z,99.99
2018-04-24T09:10:03.799Z,99.99
2018-04-24T09:11:48.942Z,99.99
2018-04-24T09:12:49.526Z,99.99
2018-04-24T09:13:50.103Z,99.99
2018-04-24T09:14:50.679Z,99.99
2018-04-24T09:16:35.821Z,99.99
2018-04-24T09:17:36.402Z,99.99
2018-04-24T09:18:36.980Z,99.99
2018-04-24T09:19:37.564Z,99.99
2018-04-24T09:21:22.651Z,99.99
2018-04-24T09:22:23.230Z,99.99
2018-04-24T09:23:23.862Z,99.99
2018-04-24T09:24:24.436Z,99.99
2018-04-24T09:26:09.529Z,99.99
2018-04-24T09:27:10.130Z,99.99
2018-04-24T09:28:10.687Z,99.99
2018-04-24T09:29:11.268Z,99.99
2018-04-24T09:30:56.508Z,99.99
2018-04-24T09:31:57.136Z,99.99
2018-04-24T09:32:57.716Z,99.99
2018-04-24T09:33:58.293Z,99.99
2018-04-24T09:35:43.385Z,99.99
2018-04-24T09:36:43.965Z,99.99
2018-04-24T09:37:44.543Z,99.99
2018-04-24T09:38:45.124Z,99.99
2018-04-24T09:40:30.265Z,99.99
2018-04-24T09:41:30.845Z,99.99
2018-04-24T09:42:31.424Z,99.99
2018-04-24T09:43:32.005Z,99.99
2018-04-24T09:45:17.097Z,99.99
2018-04-24T09:46:17.763Z,99.99
2018-04-24T09:47:18.292Z,99.99
2018-04-24T09:48:18.876Z,99.99
2018-04-24T09:50:04.015Z,99.99
2018-04-24T09:51:04.595Z,99.99
2018-04-24T09:52:05.223Z,99.99
2018-04-24T09:53:05.800Z,99.99
2018-04-24T09:54:50.941Z,99.99
2018-04-24T09:55:51.562Z,99.99
2018-04-24T09:56:52.166Z,99.99
2018-04-24T09:57:52.718Z,99.99
2018-04-24T09:59:37.811Z,99.99
2018-04-24T10:00:38.391Z,99.99
2018-04-24T10:01:38.969Z,99.99
2018-04-24T10:02:39.550Z,99.99
2018-04-24T10:04:24.640Z,99.99
2018-04-24T10:05:25.222Z,99.99
2018-04-24T10:06:25.799Z,99.99
2018-04-24T10:07:26.380Z,99.99
2018-04-24T10:09:11.673Z,99.99
2018-04-24T10:10:12.251Z,99.99
2018-04-24T10:11:12.829Z,99.99
2018-04-24T10:12:13.407Z,99.99
2018-04-24T10:13:58.549Z,99.99
2018-04-24T10:14:59.129Z,99.99
2018-04-24T10:15:59.709Z,99.99
2018-04-24T10:17:00.290Z,99.99
2018-04-24T10:18:45.381Z,99.99
2018-04-24T10:19:46.019Z,99.99
2018-04-24T10:20:46.541Z,99.99
2018-04-24T10:21:47.119Z,99.99
2018-04-24T10:23:32.217Z,99.99
2018-04-24T10:24:32.797Z,99.99
2018-04-24T10:25:33.375Z,99.99
2018-04-24T10:26:33.954Z,99.99
2018-04-24T10:28:19.097Z,99.99
2018-04-24T10:29:19.726Z,99.99
2018-04-24T10:30:20.355Z,99.99
2018-04-24T10:31:20.934Z,99.99
2018-04-24T10:33:06.030Z,99.99
2018-04-24T10:34:06.610Z,99.99
2018-04-24T10:35:07.189Z,99.99
2018-04-24T10:36:07.770Z,99.99
2018-04-24T10:37:52.860Z,99.99
2018-04-24T10:38:53.440Z,99.99
2018-04-24T10:39:54.020Z,99.99
2018-04-24T10:40:54.601Z,99.99
2018-04-24T10:42:39.693Z,99.99
2018-04-24T10:43:40.273Z,99.99
2018-04-24T10:44:40.852Z,99.99
2018-04-24T10:45:41.483Z,99.99
2018-04-24T10:47:26.775Z,99.99
2018-04-24T10:48:27.358Z,99.99
2018-04-24T10:49:27.933Z,99.99
2018-04-24T10:50:28.712Z,99.99
2018-04-24T10:52:13.807Z,99.99
2018-04-24T10:53:14.388Z,99.99
2018-04-24T10:54:14.968Z,99.99
2018-04-24T10:55:15.593Z,99.99
2018-04-24T10:57:00.682Z,99.99
2018-04-24T10:58:01.262Z,99.99
2018-04-24T10:59:01.841Z,99.99
2018-04-24T11:00:02.423Z,99.99
2018-04-24T11:01:47.517Z,99.99
2018-04-24T11:02:48.095Z,99.99
2018-04-24T11:03:48.674Z,99.99
2018-04-24T11:04:49.305Z,99.99
2018-04-24T11:06:34.400Z,99.99
2018-04-24T11:07:34.978Z,99.99
2018-04-24T11:08:35.608Z,99.99
2018-04-24T11:09:36.187Z,99.99
2018-04-24T11:11:21.429Z,99.99
2018-04-24T11:12:22.008Z,99.99
2018-04-24T11:13:22.588Z,99.99
2018-04-24T11:14:23.165Z,99.99
2018-04-24T11:16:08.260Z,99.99
2018-04-24T11:17:08.840Z,99.99
2018-04-24T11:18:09.423Z,99.99
2018-04-24T11:19:10.001Z,99.99
2018-04-24T11:20:55.094Z,99.99
2018-04-24T11:21:55.716Z,99.99
2018-04-24T11:22:56.296Z,99.99
2018-04-24T11:23:56.969Z,99.99
2018-04-24T11:25:42.061Z,99.99
2018-04-24T11:26:42.702Z,99.99
2018-04-24T11:27:43.270Z,99.99
2018-04-24T11:28:43.899Z,99.99
2018-04-24T11:30:29.197Z,99.99
2018-04-24T11:31:30.123Z,99.99
2018-04-24T11:32:30.708Z,99.99
2018-04-24T11:33:31.283Z,99.99
2018-04-24T11:35:16.425Z,99.99
2018-04-24T11:36:17.006Z,99.99
2018-04-24T11:37:17.586Z,99.99
2018-04-24T11:38:18.168Z,99.99
2018-04-24T11:40:03.260Z,99.99
2018-04-24T11:41:03.840Z,99.99
2018-04-24T11:42:04.418Z,99.99
2018-04-24T11:43:05.001Z,99.99
2018-04-24T11:44:50.094Z,99.99
2018-04-24T11:45:50.675Z,99.99
2018-04-24T11:46:51.253Z,99.99
2018-04-24T11:47:51.884Z,99.99
2018-04-24T11:49:37.084Z,99.99
2018-04-24T11:50:37.659Z,99.99
2018-04-24T11:51:38.236Z,99.99
2018-04-24T11:52:38.818Z,99.99
2018-04-24T11:54:23.911Z,99.99
2018-04-24T11:55:24.491Z,99.99
2018-04-24T11:56:25.071Z,99.99
2018-04-24T11:57:25.652Z,99.99
2018-04-24T11:59:10.744Z,99.99
2018-04-24T12:00:11.328Z,99.99
2018-04-24T12:01:11.946Z,99.99
2018-04-24T12:02:12.531Z,99.99
2018-04-24T12:03:57.618Z,99.99
2018-04-24T12:04:58.202Z,99.99
2018-04-24T12:05:58.779Z,99.99
2018-04-24T12:06:59.362Z,99.99
2018-04-24T12:08:44.454Z,99.99
2018-04-24T12:09:45.184Z,99.99
2018-04-24T12:10:45.817Z,99.99
2018-04-24T12:11:46.396Z,99.99
2018-04-24T12:13:31.536Z,99.99
2018-04-24T12:14:32.117Z,99.99
2018-04-24T12:15:32.695Z,99.99
2018-04-24T12:16:33.276Z,99.99
2018-04-24T12:18:18.368Z,99.99
2018-04-24T12:19:18.948Z,99.99
2018-04-24T12:20:19.527Z,99.99
2018-04-24T12:21:20.110Z,99.99
2018-04-24T12:23:05.202Z,99.99
2018-04-24T12:24:05.782Z,99.99
2018-04-24T12:25:06.365Z,99.99
2018-04-24T12:26:06.984Z,99.99
2018-04-24T12:27:52.127Z,99.99
2018-04-24T12:28:52.757Z,99.54
2018-04-24T12:29:53.337Z,99.83
2018-04-24T12:30:53.969Z,99.99
2018-04-24T12:32:39.062Z,99.99
2018-04-24T12:33:39.642Z,99.99
2018-04-24T12:34:40.222Z,99.99
2018-04-24T12:35:40.802Z,99.99
2018-04-24T12:37:25.945Z,99.99
2018-04-24T12:38:26.524Z,99.99
2018-04-24T12:39:27.104Z,99.99
2018-04-24T12:40:27.689Z,99.99
2018-04-24T12:42:12.776Z,99.99
2018-04-24T12:43:13.357Z,99.99
2018-04-24T12:44:13.937Z,99.99
2018-04-24T12:45:14.561Z,99.99
2018-04-24T12:46:59.760Z,99.99
2018-04-24T12:48:00.395Z,99.99
2018-04-24T12:49:01.023Z,99.99
2018-04-24T12:50:01.601Z,99.99
2018-04-24T12:51:46.748Z,99.99
2018-04-24T12:52:47.277Z,99.99
2018-04-24T12:53:47.858Z,99.99
2018-04-24T12:54:48.437Z,99.99
2018-04-24T12:56:33.530Z,99.99
2018-04-24T12:57:34.111Z,99.99
2018-04-24T12:58:34.691Z,99.99
2018-04-24T12:59:35.312Z,99.99
2018-04-24T13:01:20.455Z,99.99
2018-04-24T13:02:21.035Z,99.99
2018-04-24T13:03:21.615Z,99.99
2018-04-24T13:04:22.193Z,99.99
2018-04-24T13:06:07.335Z,99.99
2018-04-24T13:07:07.917Z,99.99
2018-04-24T13:08:08.547Z,99.99
2018-04-24T13:09:09.124Z,99.99
2018-04-24T13:10:54.220Z,99.99
2018-04-24T13:11:54.801Z,99.99
2018-04-24T13:12:55.381Z,99.99
2018-04-24T13:13:55.961Z,99.99
2018-04-24T13:15:41.053Z,99.99
2018-04-24T13:16:41.635Z,99.99
2018-04-24T13:17:42.266Z,99.99
2018-04-24T13:18:42.844Z,99.99
2018-04-24T13:20:27.937Z,99.99
2018-04-24T13:21:28.518Z,99.99
2018-04-24T13:22:29.098Z,99.99
2018-04-24T13:23:29.679Z,99.99
2018-04-24T13:25:14.821Z,99.99
2018-04-24T13:26:15.451Z,99.99
2018-04-24T13:27:16.029Z,99.99
2018-04-24T13:28:16.609Z,99.99
2018-04-24T13:30:01.754Z,99.99
2018-04-24T13:31:02.336Z,99.99
2018-04-24T13:32:02.910Z,99.99
2018-04-24T13:33:03.488Z,99.99
2018-04-24T13:34:48.631Z,99.99
2018-04-24T13:35:49.257Z,99.99
2018-04-24T13:36:49.837Z,99.99
2018-04-24T13:37:50.416Z,99.99
2018-04-24T13:39:35.509Z,99.99
2018-04-24T13:40:36.090Z,99.99
2018-04-24T13:41:36.673Z,99.99
2018-04-24T13:42:37.251Z,99.99
2018-04-24T13:44:22.494Z,99.99
2018-04-24T13:45:23.223Z,99.93
2018-04-24T13:46:23.803Z,99.99
2018-04-24T13:47:24.383Z,99.83
2018-04-24T13:49:09.475Z,99.93
2018-04-24T13:50:10.057Z,99.99
2018-04-24T13:51:10.688Z,99.99
2018-04-24T13:52:11.267Z,99.93
2018-04-24T13:53:56.360Z,99.64
2018-04-24T13:54:56.941Z,99.64
2018-04-24T13:55:57.521Z,99.44
2018-04-24T13:56:58.102Z,99.99
2018-04-24T13:58:43.246Z,99.44
2018-04-24T13:59:43.828Z,99.99
2018-04-24T14:00:44.457Z,99.99
2018-04-24T14:01:45.036Z,99.73
2018-04-24T14:03:30.178Z,99.83
2018-04-24T14:04:30.759Z,99.83
2018-04-24T14:05:31.342Z,99.99
2018-04-24T14:06:31.922Z,99.99
2018-04-24T14:08:17.013Z,99.93
2018-04-24T14:09:17.641Z,99.99
2018-04-24T14:10:18.220Z,99.99
2018-04-24T14:11:18.798Z,99.99
2018-04-24T14:13:03.940Z,99.83
2018-04-24T14:14:04.521Z,99.93
2018-04-24T14:15:05.099Z,99.99
2018-04-24T14:16:05.678Z,99.99
2018-04-24T14:17:50.771Z,99.64
2018-04-24T14:18:51.402Z,99.16
2018-04-24T14:19:51.982Z,99.54
2018-04-24T14:20:52.561Z,99.26
2018-04-24T14:22:37.705Z,99.26
2018-04-24T14:23:38.285Z,99.44
2018-04-24T14:24:38.863Z,99.54
2018-04-24T14:25:39.445Z,99.44
2018-04-24T14:27:24.535Z,99.44
2018-04-24T14:28:25.169Z,99.54
2018-04-24T14:29:25.789Z,99.35
2018-04-24T14:30:26.368Z,99.44
2018-04-24T14:32:11.463Z,99.44
2018-04-24T14:33:12.044Z,99.64
2018-04-24T14:34:12.672Z,99.64
2018-04-24T14:35:13.251Z,99.73
2018-04-24T14:36:58.344Z,99.54
2018-04-24T14:37:59.073Z,99.44
2018-04-24T14:38:59.705Z,99.54
2018-04-24T14:40:00.283Z,98.96
2018-04-24T14:41:45.382Z,99.54
2018-04-24T14:42:45.978Z,99.54
2018-04-24T14:43:46.538Z,99.64
2018-04-24T14:44:47.118Z,99.54
2018-04-24T14:46:32.261Z,99.44
2018-04-24T14:47:32.935Z,99.16
2018-04-24T14:48:33.471Z,99.44
2018-04-24T14:49:34.052Z,99.44
2018-04-24T14:51:19.145Z,99.26
2018-04-24T14:52:19.731Z,99.44
2018-04-24T14:53:20.306Z,99.73
2018-04-24T14:54:20.887Z,99.26
2018-04-24T14:56:05.979Z,99.54
2018-04-24T14:57:06.563Z,99.64
2018-04-24T14:58:07.236Z,99.44
2018-04-24T14:59:07.965Z,99.06
2018-04-24T15:00:53.207Z,98.96
2018-04-24T15:01:53.786Z,99.06
2018-04-24T15:02:54.517Z,99.06
2018-04-24T15:03:55.098Z,98.87
2018-04-24T15:05:40.191Z,99.16
2018-04-24T15:06:40.773Z,98.96
2018-04-24T15:07:41.353Z,98.87
2018-04-24T15:08:41.933Z,98.96
2018-04-24T15:10:27.026Z,98.87
2018-04-24T15:11:27.608Z,98.77
2018-04-24T15:12:28.188Z,98.68
2018-04-24T15:13:28.769Z,98.49
2018-04-24T15:15:13.861Z,98.10
2018-04-24T15:16:14.443Z,98.10
2018-04-24T15:17:15.071Z,98.19
2018-04-24T15:18:15.802Z,98.19
2018-04-24T15:20:00.892Z,98.49
2018-04-24T15:21:01.479Z,98.87
2018-04-24T15:22:02.055Z,98.58
2018-04-24T15:23:02.687Z,98.87
2018-04-24T15:24:47.777Z,99.06